Latest Weather Observations for Pallamana

IDS60901

Issued at 5:11 am CDT Monday 20 February 2017 (issued every 10 minutes, with the page automatically refreshed every 10 minutes)

About weather observations | Map of Adelaide area stations | Latest observations for Adelaide area | Other Formats
Station Details ID: 024584 Name: PALLAMANA AERODROME Lat: -35.06 Lon: 139.23 Height: 45.0 m
Data from the previous 72 hours. | See also: Recent months at Pallamana
Date/Time
CDT
Temp
°C
App
Temp
°C
Dew
Point
°C
Rel
Hum
%
Delta-T
°C
Wind Press
QNH
hPa
Press
MSL
hPa
Rain since
9am
mm
Dir  Spd
km/h
Gust
km/h
Spd
kts
Gust
kts
20/05:00am 13.6 11.5 11.1 85 1.3 W 13 15 7 8 1016.7 1016.5 1.8
20/04:30am 13.5 11.4 11.0 85 1.3 W 13 15 7 8 1016.6 1016.4 1.8
20/04:00am 13.5 11.1 11.4 87 1.1 WSW 15 19 8 10 1016.5 1016.3 1.8
20/03:30am 13.5 11.4 11.2 86 1.2 W 13 17 7 9 1016.7 1016.5 1.8
20/03:00am 13.2 11.2 11.5 89 0.9 WSW 13 15 7 8 1016.7 1016.5 1.8
20/02:30am 13.0 10.9 11.1 88 1.0 WSW 13 15 7 8 1016.6 1016.4 1.8
20/02:00am 13.1 11.0 11.0 87 1.1 SW 13 17 7 9 1016.7 1016.5 1.8
20/01:30am 13.2 10.2 10.7 85 1.3 WSW 17 20 9 11 1016.7 1016.5 1.8
20/01:00am 13.2 8.7 11.3 88 1.0 WSW 26 35 14 19 1016.9 1016.7 1.8
20/12:30am 12.3 8.9 10.6 89 0.9 WSW 19 20 10 11 1016.9 1016.7 1.8
20/12:00am 12.5 9.6 11.0 90 0.8 WSW 17 19 9 10 1017.0 1016.8 1.8
 
Date/Time
CDT
Temp
°C
App
Temp
°C
Dew
Point
°C
Rel
Hum
%
Delta-T
°C
Wind Press
QNH
hPa
Press
MSL
hPa
Rain since
9am
mm
Dir  Spd
km/h
Gust
km/h
Spd
kts
Gust
kts
19/11:30pm 12.6 10.1 11.1 91 0.8 WSW 15 19 8 10 1017.2 1017.0 1.8
19/11:00pm 13.1 10.8 11.6 91 0.8 W 15 17 8 9 1017.2 1017.0 1.8
19/10:30pm 13.5 11.7 12.2 92 0.7 W 13 19 7 10 1017.4 1017.2 1.8
19/10:00pm 13.7 11.6 12.4 92 0.7 SW 15 19 8 10 1017.3 1017.1 1.8
19/09:52pm 13.7 11.2 12.4 92 0.7 SW 17 20 9 11 1017.2 1017.0 1.8
19/09:30pm 13.9 11.0 12.2 89 0.9 SW 19 26 10 14 1017.2 1017.0 1.2
19/09:26pm 14.3 12.2 12.3 88 1.1 SW 15 20 8 11 1017.2 1017.0 0.6
19/09:00pm 14.8 11.6 11.2 79 1.9 SW 19 24 10 13 1016.8 1016.6 0.2
19/08:30pm 15.3 11.4 8.8 65 3.3 SW 19 22 10 12 1016.6 1016.4 0.2
19/08:00pm 16.1 11.2 8.4 60 3.9 SW 24 33 13 18 1016.2 1016.0 0.2
19/07:30pm 16.1 10.2 8.9 62 3.7 SW 30 39 16 21 1016.0 1015.8 0.2
19/07:00pm 16.2 10.0 9.9 66 3.3 SSW 33 43 18 23 1015.7 1015.5 0.2
19/06:30pm 18.3 11.7 8.4 52 5.1 SW 33 43 18 23 1015.4 1015.2 0.2
19/06:00pm 17.8 11.7 9.6 58 4.3 SSW 32 46 17 25 1015.4 1015.2 0.2
19/05:30pm 20.6 12.9 7.3 42 6.8 SW 37 48 20 26 1015.1 1014.9 0.2
19/05:00pm 20.4 13.1 7.3 42 6.7 SW 35 50 19 27 1015.0 1014.8 0.2
19/04:30pm 20.1 13.1 8.4 47 6.1 SW 35 50 19 27 1015.0 1014.8 0.2
19/04:18pm 19.0 11.6 8.4 50 5.5 SW 37 46 20 25 1015.0 1014.8 0.2
19/04:00pm 19.4 13.6 7.9 47 5.9 SSW 28 39 15 21 1015.1 1014.9 0.2
19/03:30pm 19.3 12.6 8.3 49 5.7 SW 33 44 18 24 1015.6 1015.4 0.2
19/03:00pm 19.1 12.4 7.3 46 6.0 SW 32 41 17 22 1015.5 1015.3 0.2
19/02:30pm 19.8 12.9 9.0 49 5.7 SSW 35 46 19 25 1015.6 1015.4 0.2
19/02:00pm 18.6 11.7 9.0 53 5.0 SW 35 46 19 25 1015.9 1015.7 0.2
19/01:40pm 17.8 11.7 9.9 60 4.2 SW 32 52 17 28 1016.1 1015.9 0.2
19/01:30pm 19.5 13.7 8.1 47 5.9 SW 28 41 15 22 1016.2 1016.0 0.2
19/01:00pm 18.4 12.3 8.1 51 5.3 WSW 30 37 16 20 1016.3 1016.1 0.2
19/12:30pm 19.5 13.6 7.3 45 6.2 SW 28 37 15 20 1016.4 1016.2 0.2
19/12:00pm 16.9 10.1 9.2 60 4.0 SW 35 50 19 27 1017.0 1016.8 0.2
19/11:30am 17.5 11.7 9.5 59 4.2 WSW 30 39 16 21 1016.8 1016.6 0.2
19/11:01am 16.5 10.6 10.3 67 3.3 SW 32 57 17 31 1016.9 1016.7 0.0
19/11:00am 17.8 11.9 8.9 56 4.6 SW 30 44 16 24 1016.9 1016.7 0.0
19/10:30am 17.4 12.1 8.4 55 4.6 WSW 26 33 14 18 1017.1 1016.9 0.0
19/10:00am 15.6 10.0 10.1 70 2.9 SW 30 39 16 21 1017.1 1016.9 0.0
19/09:45am 16.1 12.2 10.9 71 2.8 WSW 22 39 12 21 1017.0 1016.8 0.0
19/09:30am 15.6 13.4 12.1 80 1.9 WSW 15 20 8 11 1017.1 1016.9 0.0
19/09:14am 14.0 11.3 11.8 86 1.2 SW 17 22 9 12 1017.1 1016.9 0.0
19/09:00am 13.2 9.2 11.7 91 0.8 SW 24 35 13 19 1017.2 1017.0 1.0
19/08:49am 13.7 8.8 11.2 85 1.3 WSW 28 39 15 21 1017.2 1017.0 0.8
19/08:46am 14.3 10.4 10.9 80 1.8 WSW 22 37 12 20 1017.2 1017.0 0.6
19/08:30am 13.8 11.5 10.3 79 1.8 WSW 13 17 7 9 1016.8 1016.6 0.6
19/08:00am 13.3 10.3 9.4 77 2.0 W 15 19 8 10 1016.7 1016.5 0.6
19/07:30am 12.7 9.7 9.1 79 1.8 W 15 20 8 11 1016.5 1016.3 0.6
19/07:00am 12.6 9.7 9.7 82 1.5 W 15 19 8 10 1016.3 1016.1 0.6
19/06:30am 12.0 9.2 10.0 87 1.0 W 15 19 8 10 1016.1 1015.9 0.6
19/06:00am 11.8 9.0 10.0 89 0.9 W 15 20 8 11 1016.0 1015.8 0.6
19/05:56am 11.8 8.6 10.0 89 0.9 W 17 20 9 11 1016.0 1015.8 0.6
19/05:37am 12.0 7.5 10.0 87 1.0 W 24 35 13 19 1016.2 1016.0 0.6
19/05:30am 12.3 8.9 9.3 82 1.5 W 17 30 9 16 1016.2 1016.0 0.6
19/05:00am 11.9 8.6 9.7 86 1.1 W 17 20 9 11 1015.9 1015.7 0.4
19/04:36am 12.0 8.3 10.0 87 1.0 W 20 30 11 16 1016.0 1015.8 0.4
19/04:30am 11.9 7.1 10.3 90 0.8 W 26 33 14 18 1016.0 1015.8 0.4
19/04:09am 12.3 7.5 10.2 87 1.1 SW 26 41 14 22 1016.3 1016.1 0.4
19/04:00am 13.3 9.7 8.3 72 2.5 W 17 20 9 11 1016.1 1015.9 0.2
19/03:30am 13.1 10.0 8.7 74 2.2 W 15 20 8 11 1015.9 1015.7 0.2
19/03:00am 12.7 9.7 9.3 80 1.7 W 15 19 8 10 1016.1 1015.9 0.2
19/02:30am 12.6 9.1 8.8 77 1.9 WSW 17 19 9 10 1016.4 1016.2 0.2
19/02:00am 13.0 9.6 9.0 77 2.0 W 17 33 9 18 1017.0 1016.8 0.2
19/01:30am 12.5 9.9 9.5 82 1.5 WSW 13 15 7 8 1017.2 1017.0 0.2
19/01:00am 12.7 9.4 9.6 81 1.6 WSW 17 20 9 11 1017.6 1017.4 0.2
19/12:30am 12.7 8.4 9.3 80 1.7 W 22 30 12 16 1017.5 1017.3 0.2
19/12:00am 12.7 9.9 8.5 75 2.1 W 13 17 7 9 1017.4 1017.2 0.2
 
Date/Time
CDT
Temp
°C
App
Temp
°C
Dew
Point
°C
Rel
Hum
%
Delta-T
°C
Wind Press
QNH
hPa
Press
MSL
hPa
Rain since
9am
mm
Dir  Spd
km/h
Gust
km/h
Spd
kts
Gust
kts
18/11:30pm 13.0 9.6 9.0 77 2.0 WSW 17 20 9 11 1017.3 1017.1 0.2
18/11:00pm 12.3 8.9 9.1 81 1.6 WSW 17 20 9 11 1017.4 1017.2 0.2
18/10:30pm 12.6 9.6 7.5 71 2.5 WSW 13 15 7 8 1017.5 1017.3 0.2
18/10:00pm 13.6 10.5 7.2 65 3.1 SW 13 15 7 8 1017.6 1017.4 0.2
18/09:30pm 13.7 8.8 7.1 64 3.2 SW 22 35 12 19 1017.5 1017.3 0.2
18/09:00pm 12.6 9.2 6.0 64 3.1 SW 13 17 7 9 1017.1 1016.9 0.2
18/08:30pm 13.2 9.9 6.5 64 3.2 SW 13 17 7 9 1016.9 1016.7 0.2
18/08:00pm 14.9 9.5 6.2 56 4.2 SSW 24 33 13 18 1016.6 1016.4 0.2
18/07:30pm 16.1 9.6 6.5 53 4.7 SSW 30 46 16 25 1016.1 1015.9 0.2
18/07:28pm 16.4 10.2 6.1 50 5.0 SSW 28 46 15 25 1016.0 1015.8 0.2
18/07:00pm 16.4 10.5 5.9 50 5.1 SSW 26 33 14 18 1015.7 1015.5 0.2
18/06:30pm 17.6 11.2 5.4 44 5.9 SSW 28 41 15 22 1015.5 1015.3 0.2
18/06:00pm 17.5 10.8 5.8 46 5.7 SSW 30 39 16 21 1015.4 1015.2 0.2
18/05:30pm 17.7 12.6 5.8 45 5.8 SSW 22 32 12 17 1015.4 1015.2 0.2
18/05:00pm 17.6 10.5 5.7 45 5.8 SW 32 43 17 23 1015.6 1015.4 0.2
18/04:30pm 18.3 12.3 7.2 48 5.6 SSW 28 39 15 21 1015.6 1015.4 0.2
18/04:00pm 18.0 11.3 8.3 53 5.0 SSW 33 43 18 23 1015.6 1015.4 0.2
18/03:30pm 17.6 12.2 9.4 58 4.3 SSW 28 37 15 20 1015.8 1015.6 0.2
18/03:10pm 16.3 11.7 12.3 77 2.2 SSW 28 41 15 22 1016.0 1015.8 0.2
18/03:00pm 14.8 9.4 12.2 84 1.4 SSW 32 43 17 23 1016.2 1016.0 0.2
18/02:52pm 14.4 7.5 11.6 83 1.5 SSW 39 57 21 31 1016.3 1016.1 0.2
18/02:46pm 17.4 11.0 8.4 55 4.6 SSW 32 50 17 27 1015.9 1015.7 0.0
18/02:30pm 19.9 14.2 6.6 42 6.7 SW 26 44 14 24 1015.6 1015.4 0.0
18/02:00pm 19.1 12.1 6.2 43 6.4 SW 32 41 17 22 1015.8 1015.6 0.0
18/01:48pm 19.5 13.3 6.0 41 6.7 SSW 28 48 15 26 1015.8 1015.6 0.0
18/01:45pm 19.0 12.1 6.6 44 6.2 SW 32 48 17 26 1015.8 1015.6 0.0
18/01:30pm 17.2 9.1 7.0 51 5.1 SW 39 50 21 27 1015.8 1015.6 0.0
18/01:00pm 18.3 12.4 5.6 43 6.2 SW 26 37 14 20 1015.6 1015.4 0.0
18/12:30pm 19.9 13.2 5.5 39 7.1 SW 30 52 16 28 1015.6 1015.4 0.0
18/12:00pm 17.3 10.5 6.8 50 5.2 SSW 32 46 17 25 1015.9 1015.7 0.0
18/11:30am 18.7 11.8 6.4 44 6.1 SW 32 44 17 24 1015.6 1015.4 0.0
18/11:00am 19.4 12.5 4.4 37 7.2 SW 30 44 16 24 1015.8 1015.6 0.0
18/10:30am 18.2 11.4 4.9 41 6.4 SW 30 41 16 22 1015.9 1015.7 0.0
18/10:03am 18.0 11.5 6.5 47 5.7 SW 30 48 16 26 1015.8 1015.6 0.0
18/10:00am 18.3 11.5 6.9 47 5.7 SW 32 43 17 23 1015.9 1015.7 0.0
18/09:30am 17.9 11.2 5.8 45 5.9 SW 30 43 16 23 1015.7 1015.5 0.0
18/09:00am 17.0 11.5 5.9 48 5.4 SW 24 35 13 19 1015.4 1015.2 0.0
18/08:30am 15.8 11.3 7.1 56 4.3 WSW 20 30 11 16 1015.5 1015.3 0.0
18/08:00am 13.0 10.4 7.7 70 2.6 WNW 11 13 6 7 1015.3 1015.1 0.0
18/07:30am 13.0 10.0 7.9 71 2.5 W 13 17 7 9 1014.9 1014.7 0.0
18/07:00am 12.0 8.7 7.9 76 2.0 W 15 17 8 9 1014.5 1014.3 0.0
18/06:30am 11.1 8.1 7.6 79 1.7 SW 13 17 7 9 1014.1 1013.9 0.0
18/06:00am 12.8 9.8 7.9 72 2.4 SW 13 15 7 8 1013.7 1013.5 0.0
18/05:30am 14.2 11.3 8.2 67 3.0 WSW 13 19 7 10 1013.4 1013.2 0.0
18/05:00am 14.3 11.1 8.3 67 3.0 WSW 15 19 8 10 1013.6 1013.4 0.0
18/04:30am 14.3 12.1 9.2 71 2.6 WSW 11 15 6 8 1013.6 1013.4 0.0
18/04:00am 13.8 11.6 9.5 75 2.2 SW 11 19 6 10 1013.5 1013.3 0.0
18/03:30am 12.7 9.6 8.7 76 2.0 WSW 15 20 8 11 1013.5 1013.3 0.0
18/03:00am 13.1 10.8 8.9 75 2.1 W 11 13 6 7 1013.7 1013.5 0.0
18/02:30am 13.0 10.3 9.0 77 2.0 W 13 17 7 9 1013.8 1013.6 0.0
18/02:00am 13.5 11.3 9.4 76 2.1 W 11 15 6 8 1014.2 1014.0 0.0
18/01:30am 13.8 11.7 9.7 76 2.1 WSW 11 13 6 7 1014.5 1014.3 0.0
18/01:00am 13.4 11.3 9.7 78 1.9 SW 11 13 6 7 1014.6 1014.4 0.0
18/12:30am 14.8 12.4 10.2 74 2.4 SW 13 17 7 9 1014.4 1014.2 0.0
18/12:00am 15.6 13.5 11.1 74 2.4 SW 13 19 7 10 1014.4 1014.2 0.0
 
Date/Time
CDT
Temp
°C
App
Temp
°C
Dew
Point
°C
Rel
Hum
%
Delta-T
°C
Wind Press
QNH
hPa
Press
MSL
hPa
Rain since
9am
mm
Dir  Spd
km/h
Gust
km/h
Spd
kts
Gust
kts
17/11:30pm 16.1 13.0 11.5 74 2.5 SW 19 26 10 14 1014.6 1014.4 0.0
17/11:00pm 17.0 13.4 11.9 72 2.8 SW 22 30 12 16 1014.8 1014.6 0.0
17/10:30pm 16.5 13.1 12.5 77 2.2 SW 22 30 12 16 1014.6 1014.4 0.0
17/10:00pm 16.8 14.4 12.7 77 2.3 SW 17 30 9 16 1014.6 1014.4 0.0
17/09:30pm 16.5 15.6 12.5 77 2.2 SW 9 13 5 7 1014.3 1014.1 0.0
17/09:00pm 15.9 14.2 12.6 81 1.8 SW 13 15 7 8 1014.3 1014.1 0.0
17/08:30pm 16.9 14.9 12.6 76 2.4 SSW 15 20 8 11 1013.9 1013.7 0.0
17/08:00pm 17.9 14.9 12.5 70 3.0 SSW 20 28 11 15 1013.9 1013.7 0.0
17/07:30pm 18.3 13.6 13.2 72 2.9 SW 30 39 16 21 1013.5 1013.3 0.0
17/07:00pm 19.2 14.6 13.4 69 3.3 SW 30 35 16 19 1013.0 1012.8 0.0
17/06:30pm 19.8 16.1 13.9 69 3.4 SSW 26 39 14 21 1012.6 1012.4 0.0
17/06:00pm 23.0 18.4 11.0 46 6.7 WSW 26 39 14 21 1012.3 1012.1 0.0
17/05:30pm 23.6 19.6 10.6 44 7.2 WSW 22 35 12 19 1012.2 1012.0 0.0
17/05:00pm 22.7 17.6 10.5 46 6.7 W 28 39 15 21 1012.0 1011.8 0.0
17/04:30pm 23.1 18.8 10.6 45 6.9 W 24 35 13 19 1012.0 1011.8 0.0
17/04:00pm 23.2 18.8 10.3 44 7.1 WSW 24 33 13 18 1012.1 1011.9 0.0
17/03:30pm 23.1 18.6 10.2 44 7.1 W 24 32 13 17 1012.1 1011.9 0.0
17/03:00pm 22.4 19.2 11.1 48 6.3 W 19 33 10 18 1012.5 1012.3 0.0
17/02:30pm 22.0 17.8 11.0 49 6.1 W 24 35 13 19 1012.8 1012.6 0.0
17/02:00pm 22.3 18.7 10.7 47 6.4 W 20 33 11 18 1013.0 1012.8 0.0
17/01:30pm 22.7 18.7 10.3 45 6.8 WSW 22 30 12 16 1013.2 1013.0 0.0
17/01:00pm 21.0 17.3 10.1 49 5.9 W 20 28 11 15 1013.6 1013.4 0.0
17/12:30pm 20.5 16.9 9.9 50 5.7 WSW 19 30 10 16 1014.0 1013.8 0.0
17/12:00pm 20.3 16.5 9.9 51 5.6 WSW 20 28 11 15 1014.3 1014.1 0.0
17/11:30am 19.9 15.2 9.3 50 5.6 WSW 24 30 13 16 1014.4 1014.2 0.0
17/11:00am 19.5 16.9 9.5 52 5.3 SW 13 20 7 11 1014.4 1014.2 0.0
17/10:30am 19.3 15.4 9.3 52 5.3 SW 20 28 11 15 1014.2 1014.0 0.0
17/10:00am 19.0 15.3 9.3 53 5.1 WSW 19 30 10 16 1014.1 1013.9 0.0
17/09:30am 18.6 15.2 9.3 54 4.9 WSW 17 20 9 11 1013.8 1013.6 0.0
17/09:00am 18.4 15.8 9.3 55 4.8 WSW 13 17 7 9 1013.5 1013.3 0.2
17/08:30am 17.9 16.2 10.0 60 4.2 WNW 9 13 5 7 1013.3 1013.1 0.2
17/08:00am 15.0 13.2 10.9 76 2.2 NW 11 13 6 7 1013.3 1013.1 0.2
17/07:30am 13.9 11.9 10.3 79 1.9 WNW 11 13 6 7 1013.0 1012.8 0.2
17/07:00am 12.8 11.1 9.7 81 1.6 W 9 13 5 7 1012.7 1012.5 0.2
17/06:30am 12.3 10.5 9.5 83 1.4 W 9 13 5 7 1012.4 1012.2 0.2
17/06:00am 11.5 10.3 9.5 87 1.0 WNW 6 13 3 7 1012.2 1012.0 0.2
17/05:30am 10.3 8.8 8.5 89 0.9 WNW 6 11 3 6 1011.9 1011.7 0.2

Latest Capital City Observations: Canberra | Sydney | Melbourne | Brisbane | Adelaide | Perth | Hobart | Darwin

Other Formats:

Comma delimited format used in spreadsheet applications
http://www.bom.gov.au/fwo/IDS60901/IDS60901.95818.axf

JavaScript Object Notation format (JSON) in row-major order
http://www.bom.gov.au/fwo/IDS60901/IDS60901.95818.json